Time;durP1;ratioP1;P1;durP2;ratioP2;P2;SDS_P1;SDS_P2;PMS_P1;PMS_P2;Temp;Humidity;BMP_temperature;BMP_pressure;BME280_temperature;BME280_humidity;BME280_pressure;Samples;Min_cycle;Max_cycle;Signal;HPM_P1;HPM_P2
2021/04/15 00:00:28;;;;;;;4.93;4.00;;;;;;;-2.52;72.16;96412.81;4995569;28;20217;-75
2021/04/15 00:02:54;;;;;;;4.87;3.60;;;;;;;-2.54;72.16;96414.56;5013123;28;20189;-75
2021/04/15 00:05:29;;;;;;;4.33;3.23;;;;;;;-2.56;72.11;96414.63;4994816;28;20226;-75
2021/04/15 00:07:54;;;;;;;6.00;3.80;;;;;;;-2.59;72.61;96417.22;5011371;28;20186;-75
2021/04/15 00:10:25;;;;;;;4.67;3.90;;;;;;;-2.54;72.26;96417.09;4995315;28;20192;-76
2021/04/15 00:12:50;;;;;;;4.30;3.37;;;;;;;-2.63;71.95;96408.88;4995070;28;20182;-75
2021/04/15 00:15:17;;;;;;;6.23;3.80;;;;;;;-2.69;72.17;96411.59;4994987;28;20550;-74
2021/04/15 00:17:42;;;;;;;5.00;4.50;;;;;;;-2.70;72.67;96409.94;5012806;28;20211;-75
2021/04/15 00:20:08;;;;;;;6.63;3.67;;;;;;;-2.72;72.87;96409.16;4994842;28;20188;-75
2021/04/15 00:22:34;;;;;;;6.80;4.80;;;;;;;-2.74;73.32;96410.94;4995047;28;20699;-75
2021/04/15 00:25:00;;;;;;;5.27;3.97;;;;;;;-2.68;72.85;96408.19;4994672;28;20205;-74
2021/04/15 00:27:25;;;;;;;6.27;4.40;;;;;;;-2.71;72.71;96412.53;5012370;28;20184;-75
2021/04/15 00:29:51;;;;;;;5.90;5.00;;;;;;;-2.68;73.38;96405.63;4994832;28;20197;-75
2021/04/15 00:32:16;;;;;;;5.47;4.70;;;;;;;-2.65;72.68;96402.16;5012467;28;20567;-75
2021/04/15 00:34:41;;;;;;;5.30;4.40;;;;;;;-2.67;72.79;96397.13;4994694;28;20626;-75
2021/04/15 00:37:07;;;;;;;5.63;5.07;;;;;;;-2.71;73.35;96394.72;4994564;28;20685;-74
2021/04/15 00:39:32;;;;;;;7.37;4.83;;;;;;;-2.74;73.46;96392.28;4991501;28;20265;-74
2021/04/15 00:41:57;;;;;;;5.93;4.67;;;;;;;-2.75;73.81;96393.16;4992976;28;20186;-76
2021/04/15 00:44:23;;;;;;;5.23;4.60;;;;;;;-2.79;73.65;96389.88;4978081;28;20208;-75
2021/04/15 00:46:53;;;;;;;8.03;5.20;;;;;;;-2.83;73.85;96390.00;5011068;28;20180;-75
2021/04/15 00:49:27;;;;;;;6.50;4.47;;;;;;;-2.86;73.41;96386.69;5010843;28;20193;-74
2021/04/15 00:51:56;;;;;;;6.80;4.40;;;;;;;-2.82;73.54;96387.44;4994145;28;20194;-75
2021/04/15 00:54:32;;;;;;;7.90;4.00;;;;;;;-2.88;74.19;96387.63;4994047;28;20205;-76
2021/04/15 00:56:58;;;;;;;4.87;4.23;;;;;;;-2.90;73.51;96389.38;5010592;28;20212;-74
2021/04/15 00:59:25;;;;;;;5.33;4.10;;;;;;;-2.88;74.15;96387.63;4994432;28;20185;-76
2021/04/15 01:01:50;;;;;;;7.27;4.57;;;;;;;-2.91;74.04;96387.72;5010427;28;20186;-75
2021/04/15 01:04:16;;;;;;;13.13;4.90;;;;;;;-2.89;73.49;96391.03;4977800;28;20621;-76
2021/04/15 01:06:41;;;;;;;5.40;4.03;;;;;;;-2.93;74.03;96385.19;5011511;28;20182;-73
2021/04/15 01:09:07;;;;;;;7.63;4.33;;;;;;;-2.92;73.50;96378.41;5010602;28;20187;-76
2021/04/15 01:11:42;;;;;;;4.00;3.50;;;;;;;-2.94;73.79;96381.00;4994343;28;20185;-76
2021/04/15 01:14:25;;;;;;;7.00;4.10;;;;;;;-2.90;73.69;96382.59;4994007;28;20206;-75
2021/04/15 01:17:00;;;;;;;6.60;4.27;;;;;;;-2.90;73.99;96386.84;5010129;28;20566;-76
2021/04/15 01:19:43;;;;;;;4.67;4.10;;;;;;;-2.92;74.51;96380.94;4993919;28;20263;-76
2021/04/15 01:22:50;;;;;;;6.53;4.60;;;;;;;-2.95;73.79;96381.03;5011485;28;20233;-76
2021/04/15 01:25:36;;;;;;;5.60;4.07;;;;;;;-2.95;73.89;96383.59;5010450;28;20215;-76
2021/04/15 01:28:34;;;;;;;4.33;3.93;;;;;;;-2.99;74.07;96382.03;5009096;28;20641;-76
2021/04/15 01:31:08;;;;;;;5.50;4.30;;;;;;;-3.00;73.85;96376.13;4993904;28;20182;-74
2021/04/15 01:33:39;;;;;;;5.40;4.27;;;;;;;-3.03;73.90;96376.19;4993524;28;20180;-74
2021/04/15 01:36:17;;;;;;;5.37;4.23;;;;;;;-3.01;74.61;96376.97;4993401;28;20184;-75
2021/04/15 01:38:48;;;;;;;4.97;4.17;;;;;;;-3.06;74.81;96376.28;4993905;28;20656;-75
2021/04/15 01:41:30;;;;;;;7.30;4.50;;;;;;;-3.05;74.05;96382.19;4993949;28;20184;-74
2021/04/15 01:44:33;;;;;;;6.23;5.03;;;;;;;-3.12;75.19;96373.91;4993409;28;20606;-76
2021/04/15 01:47:02;;;;;;;6.20;4.60;;;;;;;-3.17;74.85;96376.59;4953956;28;20230;-75
2021/04/15 01:49:33;;;;;;;5.70;4.30;;;;;;;-3.17;74.53;96384.22;4993773;28;20183;-76
2021/04/15 01:51:58;;;;;;;6.03;4.70;;;;;;;-3.21;74.60;96379.28;4993536;28;20248;-76
2021/04/15 01:54:37;;;;;;;6.60;4.70;;;;;;;-3.21;74.37;96375.00;4993347;28;20629;-73
2021/04/15 01:57:09;;;;;;;6.43;4.10;;;;;;;-3.20;74.88;96375.84;4993506;28;20217;-76
2021/04/15 01:59:40;;;;;;;5.67;4.07;;;;;;;-3.21;74.33;96372.47;4993544;28;20663;-76
2021/04/15 02:02:20;;;;;;;6.60;4.03;;;;;;;-3.24;74.89;96375.13;4977491;28;20189;-76
2021/04/15 02:04:53;;;;;;;6.10;4.20;;;;;;;-3.29;75.22;96387.09;4993130;28;20210;-76
2021/04/15 02:07:19;;;;;;;5.00;4.00;;;;;;;-3.26;74.91;96378.59;4993384;28;20176;-75
2021/04/15 02:09:46;;;;;;;5.97;4.53;;;;;;;-3.32;74.72;96379.59;4993616;28;20256;-76
2021/04/15 02:12:16;;;;;;;5.50;4.27;;;;;;;-3.32;75.40;96379.59;4993559;28;20187;-75
2021/04/15 02:14:44;;;;;;;4.60;4.10;;;;;;;-3.34;74.78;96378.81;4993157;28;20215;-75
2021/04/15 02:17:10;;;;;;;4.10;3.60;;;;;;;-3.35;75.06;96369.53;4993404;28;20290;-76
2021/04/15 02:19:45;;;;;;;5.13;4.10;;;;;;;-3.33;74.65;96377.91;4993497;28;20304;-76
2021/04/15 02:22:48;;;;;;;7.23;4.60;;;;;;;-3.35;74.82;96376.31;5009258;28;20188;-76
2021/04/15 02:25:23;;;;;;;7.20;4.27;;;;;;;-3.39;74.96;96378.09;5010378;28;20314;-75
2021/04/15 02:28:03;;;;;;;5.67;4.10;;;;;;;-3.34;74.78;96377.97;4992848;28;20214;-74
2021/04/15 02:30:34;;;;;;;8.90;4.30;;;;;;;-3.39;74.91;96377.25;4993391;28;20692;-76
2021/04/15 02:33:03;;;;;;;9.17;4.93;;;;;;;-3.34;74.59;96367.81;4993298;28;20683;-75
2021/04/15 02:35:39;;;;;;;7.93;5.20;;;;;;;-3.36;74.46;96380.53;4993949;28;20215;-75
2021/04/15 02:38:05;;;;;;;9.57;5.07;;;;;;;-3.41;75.10;96382.38;4996616;28;20210;-76
2021/04/15 02:40:35;;;;;;;6.70;4.27;;;;;;;-3.42;74.88;96379.00;4993710;28;20241;-76
2021/04/15 02:43:10;;;;;;;9.13;4.50;;;;;;;-3.41;74.85;96374.75;4987769;28;20190;-75
2021/04/15 02:45:40;;;;;;;5.57;4.37;;;;;;;-3.41;75.03;96374.75;4996862;28;20285;-76
2021/04/15 02:48:20;;;;;;;5.50;4.13;;;;;;;-3.46;74.99;96371.50;5012866;28;20200;-75
2021/04/15 02:50:46;;;;;;;7.73;3.93;;;;;;;-3.44;74.98;96372.31;5013041;28;20189;-75
2021/04/15 02:53:22;;;;;;;7.00;3.90;;;;;;;-3.47;74.90;96372.38;4996840;28;20186;-75
2021/04/15 02:55:53;;;;;;;6.00;3.63;;;;;;;-3.51;75.67;96368.28;4996246;28;20210;-76
2021/04/15 02:58:28;;;;;;;4.33;3.83;;;;;;;-3.47;75.50;96364.78;5014427;28;20188;-76
2021/04/15 03:00:54;;;;;;;8.30;3.83;;;;;;;-3.40;75.78;96365.44;4996340;28;20177;-75
2021/04/15 03:03:21;;;;;;;7.10;4.30;;;;;;;-3.49;75.55;96372.44;4996240;28;20684;-75
2021/04/15 03:05:50;;;;;;;4.70;3.70;;;;;;;-3.52;75.92;96369.16;4996144;28;20214;-76
2021/04/15 03:08:19;;;;;;;6.77;3.97;;;;;;;-3.55;76.00;96369.22;5012610;28;20666;-76
2021/04/15 03:10:51;;;;;;;4.73;3.70;;;;;;;-3.57;75.69;96376.06;4996624;28;20190;-76
2021/04/15 03:13:21;;;;;;;5.30;3.70;;;;;;;-3.61;75.63;96370.25;4996467;28;20291;-75
2021/04/15 03:15:54;;;;;;;4.73;4.20;;;;;;;-3.66;75.69;96368.69;4995914;28;20202;-76
2021/04/15 03:18:25;;;;;;;6.60;4.43;;;;;;;-3.65;75.64;96371.19;4979554;28;20246;-76
2021/04/15 03:21:00;;;;;;;5.07;4.07;;;;;;;-3.69;75.79;96364.53;4996237;28;20181;-76
2021/04/15 03:23:47;;;;;;;5.80;4.67;;;;;;;-3.67;75.79;96372.13;4996350;28;20195;-74
2021/04/15 03:26:22;;;;;;;5.17;4.10;;;;;;;-3.68;76.10;96367.91;5012087;28;20633;-76
2021/04/15 03:28:58;;;;;;;5.30;4.27;;;;;;;-3.63;75.77;96371.97;4996079;28;20602;-74
2021/04/15 03:31:26;;;;;;;8.33;4.97;;;;;;;-3.60;76.06;96373.63;4996079;28;20218;-75
2021/04/15 03:34:02;;;;;;;6.07;4.37;;;;;;;-3.60;76.11;96369.38;4995920;28;20814;-74
2021/04/15 03:36:33;;;;;;;6.23;3.93;;;;;;;-3.60;76.10;96369.38;4995673;28;20248;-75
2021/04/15 03:39:09;;;;;;;9.93;4.03;;;;;;;-3.59;75.97;96376.09;4996378;28;20214;-76
2021/04/15 03:41:41;;;;;;;7.67;4.70;;;;;;;-3.64;76.23;96372.00;4979717;28;20648;-76
2021/04/15 03:44:21;;;;;;;6.37;4.40;;;;;;;-3.65;75.45;96377.97;4995369;28;20283;-76
2021/04/15 03:46:58;;;;;;;5.63;4.17;;;;;;;-3.67;75.99;96379.72;4995733;28;20188;-76
2021/04/15 03:49:39;;;;;;;5.90;4.60;;;;;;;-3.66;76.75;96376.31;4995290;28;20279;-76
2021/04/15 03:52:14;;;;;;;8.33;4.30;;;;;;;-3.71;76.37;96367.13;4995745;28;20202;-76
2021/04/15 03:54:42;;;;;;;6.07;4.17;;;;;;;-3.73;75.79;96373.94;4979106;28;20202;-75
2021/04/15 03:57:12;;;;;;;6.30;3.73;;;;;;;-3.74;76.19;96374.81;4995641;28;20675;-75
2021/04/15 03:59:45;;;;;;;7.33;4.37;;;;;;;-3.73;76.60;96373.09;4995474;28;20629;-75
2021/04/15 04:02:15;;;;;;;5.80;4.37;;;;;;;-3.76;76.17;96365.56;4995426;28;20189;-75
2021/04/15 04:04:54;;;;;;;8.23;5.50;;;;;;;-3.78;76.06;96370.69;5011657;28;20204;-75
2021/04/15 04:07:36;;;;;;;9.53;5.63;;;;;;;-3.79;76.74;96368.22;4995450;28;20180;-75
2021/04/15 04:10:07;;;;;;;9.00;5.77;;;;;;;-3.82;75.97;96373.34;4995173;28;20179;-74
2021/04/15 04:13:10;;;;;;;10.23;5.97;;;;;;;-3.85;76.65;96370.91;4995376;28;20179;-74
2021/04/15 04:15:39;;;;;;;7.10;5.27;;;;;;;-3.89;76.39;96370.13;4994146;28;20227;-74
2021/04/15 04:18:14;;;;;;;8.80;5.07;;;;;;;-3.87;76.45;96372.66;4995039;28;20615;-74
2021/04/15 04:20:41;;;;;;;7.97;4.80;;;;;;;-3.94;76.35;96369.44;4991980;28;20177;-75
2021/04/15 04:23:12;;;;;;;8.33;5.47;;;;;;;-3.95;76.01;96369.47;4986796;28;20188;-75
2021/04/15 04:26:02;;;;;;;13.70;7.90;;;;;;;-3.99;76.46;96367.00;4994877;28;20211;-75
2021/04/15 04:28:32;;;;;;;10.10;6.60;;;;;;;-4.02;76.32;96361.19;5013642;28;20191;-75
2021/04/15 04:31:08;;;;;;;9.13;6.37;;;;;;;-4.05;76.48;96371.44;4993590;28;20265;-75
2021/04/15 04:33:38;;;;;;;14.80;6.83;;;;;;;-4.04;76.82;96380.69;5011210;28;20194;-74
2021/04/15 04:36:04;;;;;;;12.50;6.53;;;;;;;-4.01;76.87;96375.53;4994063;28;20648;-76
2021/04/15 04:38:30;;;;;;;8.77;5.47;;;;;;;-3.96;75.92;96378.81;4994919;28;20326;-77
2021/04/15 04:41:05;;;;;;;8.10;5.77;;;;;;;-3.99;76.44;96376.31;4994726;28;20191;-74
2021/04/15 04:43:44;;;;;;;8.10;4.77;;;;;;;-3.98;76.90;96377.97;4994692;28;20190;-74
2021/04/15 04:46:19;;;;;;;6.07;4.27;;;;;;;-3.95;76.72;96385.53;4994080;28;20178;-78
2021/04/15 04:48:52;;;;;;;8.70;5.67;;;;;;;-3.91;76.44;96381.19;4978658;28;20189;-76
2021/04/15 04:51:19;;;;;;;8.03;5.50;;;;;;;-3.87;76.33;96376.03;4994338;28;20183;-75
2021/04/15 04:53:48;;;;;;;5.90;4.73;;;;;;;-3.77;75.74;96392.66;4989707;28;20187;-74
2021/04/15 04:56:25;;;;;;;6.80;5.77;;;;;;;-3.63;75.69;96392.28;4993524;28;20199;-76
2021/04/15 04:59:15;;;;;;;8.23;5.80;;;;;;;-2.93;73.87;96399.63;5010035;28;20678;-76
2021/04/15 05:01:41;;;;;;;7.57;4.87;;;;;;;-2.50;70.72;96400.84;4982732;28;20226;-75
2021/04/15 05:04:07;;;;;;;7.93;4.90;;;;;;;-2.46;70.71;96397.34;4990671;28;20704;-76
2021/04/15 05:06:36;;;;;;;6.03;4.77;;;;;;;-2.41;71.29;96398.84;4993886;28;20633;-76
2021/04/15 05:09:21;;;;;;;6.30;5.20;;;;;;;-2.51;71.16;96394.94;4990930;28;20256;-76
2021/04/15 05:11:49;;;;;;;7.30;5.10;;;;;;;-2.60;71.78;96400.31;4973855;28;20184;-76
2021/04/15 05:14:16;;;;;;;9.77;6.07;;;;;;;-2.60;71.71;96400.31;5001097;28;20210;-75
2021/04/15 05:16:50;;;;;;;10.67;7.30;;;;;;;-2.62;71.79;96400.38;4986200;28;20239;-75
2021/04/15 05:19:16;;;;;;;10.73;6.90;;;;;;;-2.64;72.34;96402.13;4998180;28;20235;-74
2021/04/15 05:21:42;;;;;;;9.37;6.13;;;;;;;-2.60;72.71;96400.31;4986131;28;20598;-75
2021/04/15 05:24:28;;;;;;;7.77;5.37;;;;;;;-2.54;72.30;96409.47;4995129;28;20209;-75
2021/04/15 05:26:54;;;;;;;12.50;7.73;;;;;;;-2.49;72.42;96412.69;4979249;28;20190;-76
2021/04/15 05:29:28;;;;;;;12.17;7.67;;;;;;;-2.50;72.26;96414.41;4986013;28;20210;-75
2021/04/15 05:31:55;;;;;;;10.93;7.50;;;;;;;-2.36;72.64;96408.91;5000379;28;20566;-75
2021/04/15 05:34:29;;;;;;;13.40;7.43;;;;;;;-2.35;72.92;96416.47;4983339;28;20249;-75
2021/04/15 05:37:07;;;;;;;14.63;9.17;;;;;;;-2.33;73.10;96421.50;4985894;28;20216;-75
2021/04/15 05:39:32;;;;;;;13.53;8.63;;;;;;;-2.24;72.76;96418.69;4986180;28;20187;-75
2021/04/15 05:42:28;;;;;;;12.33;9.40;;;;;;;-2.14;72.63;96421.75;4979881;28;20717;-75
2021/04/15 05:45:00;;;;;;;15.03;9.50;;;;;;;-2.05;72.07;96426.53;4999716;28;20223;-75
2021/04/15 05:47:30;;;;;;;11.93;8.93;;;;;;;-1.98;72.65;96425.47;4986337;28;21473;-75
2021/04/15 05:50:00;;;;;;;10.10;6.77;;;;;;;-1.92;72.45;96421.91;4988604;28;20224;-75
2021/04/15 05:52:41;;;;;;;9.40;6.87;;;;;;;-1.81;72.48;96427.47;4985789;28;20238;-78
2021/04/15 05:55:19;;;;;;;7.60;4.90;;;;;;;-1.72;71.84;96427.97;4983761;28;20618;-78
2021/04/15 05:57:50;;;;;;;6.40;4.30;;;;;;;-1.72;71.85;96429.69;4986636;28;20672;-74
2021/04/15 06:00:35;;;;;;;5.20;3.87;;;;;;;-1.62;72.27;96431.03;4984734;28;20181;-76
2021/04/15 06:03:18;;;;;;;6.17;4.07;;;;;;;-1.47;71.73;96433.06;4987754;28;20186;-75
2021/04/15 06:05:59;;;;;;;6.57;4.03;;;;;;;-1.45;71.74;96431.28;4984990;28;20206;-75
2021/04/15 06:08:26;;;;;;;6.43;3.47;;;;;;;-1.40;71.76;96433.69;4992831;28;20183;-75
2021/04/15 06:10:59;;;;;;;5.40;4.17;;;;;;;-1.39;71.39;96429.44;4982787;28;20554;-75
2021/04/15 06:13:38;;;;;;;9.20;4.40;;;;;;;-1.48;71.76;96435.69;5009913;28;20571;-75
2021/04/15 06:16:07;;;;;;;5.63;3.80;;;;;;;-1.29;70.84;96438.41;4988267;28;20275;-76
2021/04/15 06:18:37;;;;;;;8.33;3.67;;;;;;;-1.29;70.86;96434.13;4999796;28;20228;-75
2021/04/15 06:21:15;;;;;;;5.93;4.00;;;;;;;-1.23;70.54;96433.09;4989328;28;20558;-76
2021/04/15 06:23:57;;;;;;;4.67;3.60;;;;;;;-1.11;70.50;96429.28;4986615;28;20188;-76
2021/04/15 06:26:33;;;;;;;6.00;3.63;;;;;;;-1.12;69.85;96440.38;4985504;28;20178;-75
2021/04/15 06:29:03;;;;;;;5.67;4.20;;;;;;;-1.16;70.09;96443.00;4990110;28;20655;-76
2021/04/15 06:31:43;;;;;;;6.83;3.70;;;;;;;-1.00;69.55;96438.19;4984416;28;20187;-77
2021/04/15 06:34:09;;;;;;;3.53;3.10;;;;;;;-0.83;69.24;96435.03;4986995;28;20275;-76
2021/04/15 06:36:40;;;;;;;5.57;3.13;;;;;;;-0.82;68.60;96433.28;4989850;28;20225;-75
2021/04/15 06:39:27;;;;;;;5.20;3.50;;;;;;;-0.81;69.03;96432.41;4988398;28;20612;-75
2021/04/15 06:42:27;;;;;;;5.83;4.30;;;;;;;-0.75;69.08;96435.56;4987711;28;20186;-78
2021/04/15 06:45:14;;;;;;;8.00;3.10;;;;;;;-0.58;68.88;96437.47;5001430;28;20648;-78
2021/04/15 06:47:49;;;;;;;8.27;3.97;;;;;;;-0.49;67.88;96438.84;4993339;28;20183;-78
2021/04/15 06:50:25;;;;;;;6.03;3.80;;;;;;;-0.54;68.23;96449.22;4999449;28;20235;-77
2021/04/15 06:53:16;;;;;;;3.60;3.13;;;;;;;-0.47;67.44;96450.66;4989850;28;20209;-77
2021/04/15 06:55:41;;;;;;;10.67;4.20;;;;;;;-0.36;67.27;96448.50;4987456;28;20236;-77
2021/04/15 06:58:07;;;;;;;6.37;3.70;;;;;;;-0.30;66.44;96443.19;5013051;28;20681;-80
2021/04/15 07:00:40;;;;;;;4.77;3.50;;;;;;;-0.33;65.94;96442.47;5015701;28;20183;-79
2021/04/15 07:03:21;;;;;;;4.30;3.57;;;;;;;-0.29;66.25;96446.56;4998787;28;20187;-80
2021/04/15 07:05:52;;;;;;;4.67;2.80;;;;;;;-0.19;66.09;96441.91;4996895;28;20214;-77
2021/04/15 07:08:48;;;;;;;6.00;3.37;;;;;;;-0.01;65.19;96443.75;5030301;28;20199;-78
2021/04/15 07:11:35;;;;;;;4.43;3.40;;;;;;;0.13;65.27;96446.59;5014238;28;20191;-78
2021/04/15 07:14:31;;;;;;;5.00;3.07;;;;;;;0.24;64.54;96449.53;5015139;28;20207;-76
2021/04/15 07:17:34;;;;;;;5.70;3.87;;;;;;;0.39;64.40;96444.69;4997521;28;20210;-76
2021/04/15 07:20:38;;;;;;;5.10;3.60;;;;;;;0.38;64.48;96445.56;5013650;28;20337;-77
2021/04/15 07:23:19;;;;;;;5.70;3.77;;;;;;;0.60;63.88;96448.06;5013017;28;20241;-77
2021/04/15 07:25:57;;;;;;;5.10;3.17;;;;;;;0.68;63.42;96446.81;5013903;28;20269;-77
2021/04/15 07:28:28;;;;;;;4.30;3.60;;;;;;;0.84;63.21;96450.38;5029913;28;20277;-77
2021/04/15 07:31:17;;;;;;;4.67;3.20;;;;;;;0.90;62.97;96453.59;5014281;28;20223;-78
2021/04/15 07:34:20;;;;;;;5.10;3.67;;;;;;;0.93;62.62;96450.88;5014058;28;20265;-77
2021/04/15 07:37:07;;;;;;;3.87;3.17;;;;;;;1.03;62.59;96450.41;5013052;28;20203;-78
2021/04/15 07:39:51;;;;;;;4.83;3.83;;;;;;;1.07;61.95;96449.41;4991248;28;20209;-79
2021/04/15 07:42:37;;;;;;;6.40;3.77;;;;;;;0.93;62.10;96453.44;4999260;28;20240;-78
2021/04/15 07:45:09;;;;;;;5.40;3.53;;;;;;;1.11;62.51;96455.19;5014091;28;20290;-77
2021/04/15 07:48:04;;;;;;;4.23;3.33;;;;;;;1.32;61.79;96454.22;4997961;28;20631;-75
2021/04/15 07:50:45;;;;;;;6.60;3.83;;;;;;;1.38;61.31;96453.94;5003996;28;20221;-77
2021/04/15 07:53:23;;;;;;;5.13;3.40;;;;;;;1.19;62.11;96455.69;4997196;28;20269;-78
2021/04/15 07:56:20;;;;;;;4.33;3.67;;;;;;;1.23;61.44;96461.47;4998204;28;20211;-79
2021/04/15 07:59:19;;;;;;;6.50;4.00;;;;;;;0.95;61.73;96464.44;4999182;28;20183;-79
2021/04/15 08:02:08;;;;;;;7.43;4.73;;;;;;;1.27;62.01;96466.41;5013833;28;20764;-75
2021/04/15 08:04:48;;;;;;;8.00;3.57;;;;;;;1.10;61.45;96477.38;4996731;28;20252;-75
2021/04/15 08:07:44;;;;;;;6.27;4.10;;;;;;;1.18;62.59;96473.66;5012717;28;20179;-74
2021/04/15 08:10:31;;;;;;;8.63;4.80;;;;;;;1.23;61.59;96480.22;5013051;28;20270;-75
2021/04/15 08:13:05;;;;;;;4.47;3.83;;;;;;;1.56;60.60;96469.38;5012831;28;20187;-75
2021/04/15 08:15:48;;;;;;;4.50;3.73;;;;;;;1.54;60.08;96472.00;5011625;28;20210;-75
2021/04/15 08:18:41;;;;;;;4.63;3.50;;;;;;;1.47;60.08;96472.34;4998897;28;21431;-76
2021/04/15 08:21:20;;;;;;;9.23;4.70;;;;;;;1.69;59.97;96467.91;4985639;28;20194;-75
2021/04/15 08:23:56;;;;;;;7.63;4.17;;;;;;;1.91;59.63;96476.25;5009796;28;20225;-79
2021/04/15 08:26:59;;;;;;;5.97;3.93;;;;;;;1.96;58.65;96470.91;4984429;28;20198;-79
2021/04/15 08:29:30;;;;;;;5.93;3.50;;;;;;;1.80;58.70;96475.09;5004002;28;20206;-80
2021/04/15 08:32:23;;;;;;;7.17;4.07;;;;;;;1.66;57.83;96486.78;5004080;28;20194;-77
2021/04/15 08:34:59;;;;;;;6.57;4.57;;;;;;;1.77;58.48;96481.19;4986899;28;20222;-78
2021/04/15 08:37:48;;;;;;;6.17;4.20;;;;;;;1.98;58.14;96487.03;4994628;28;20206;-80
2021/04/15 08:40:31;;;;;;;6.63;4.10;;;;;;;2.44;57.31;96485.66;5002710;28;20271;-77
2021/04/15 08:43:20;;;;;;;8.17;5.17;;;;;;;2.47;57.61;96485.53;5004012;28;20686;-77
2021/04/15 08:45:54;;;;;;;11.30;5.37;;;;;;;2.78;56.19;96487.38;4990393;28;20226;-79
2021/04/15 08:48:29;;;;;;;5.33;3.90;;;;;;;3.23;54.99;96488.50;4995264;28;20178;-80
2021/04/15 08:51:17;;;;;;;5.93;3.70;;;;;;;3.17;53.86;96482.84;4992994;28;20297;-81
2021/04/15 08:54:04;;;;;;;4.10;3.50;;;;;;;3.58;55.03;96481.50;5006593;28;20274;-76
2021/04/15 08:56:44;;;;;;;5.07;2.97;;;;;;;3.82;51.20;96483.66;4991830;28;20227;-76
2021/04/15 08:59:41;;;;;;;4.97;3.67;;;;;;;3.95;52.09;96479.50;4995004;28;20651;-76
2021/04/15 09:02:22;;;;;;;5.43;3.33;;;;;;;4.39;51.52;96478.75;4977835;28;20213;-76
2021/04/15 09:04:56;;;;;;;3.90;3.37;;;;;;;4.36;49.13;96476.38;4997439;28;20208;-77
2021/04/15 09:07:32;;;;;;;5.37;3.70;;;;;;;4.30;49.35;96482.66;5013835;28;20170;-77
2021/04/15 09:10:19;;;;;;;5.40;3.73;;;;;;;4.34;49.29;96478.19;4980212;28;20194;-75
2021/04/15 09:13:07;;;;;;;5.73;3.90;;;;;;;4.37;50.78;96478.03;4994761;28;20172;-74
2021/04/15 09:15:54;;;;;;;6.87;3.77;;;;;;;4.06;48.42;96468.63;4994423;28;20221;-74
2021/04/15 09:18:26;;;;;;;4.53;3.70;;;;;;;4.38;49.37;96477.09;4994659;28;20207;-76
2021/04/15 09:20:54;;;;;;;6.43;4.07;;;;;;;4.78;49.06;96473.91;5012089;28;20185;-75
2021/04/15 09:23:50;;;;;;;5.73;3.53;;;;;;;5.08;47.88;96471.25;5010435;28;20222;-75
2021/04/15 09:26:22;;;;;;;5.40;4.00;;;;;;;4.65;47.69;96472.13;5012152;28;20531;-75
2021/04/15 09:29:00;;;;;;;5.50;3.83;;;;;;;4.46;48.23;96473.19;4994692;28;20193;-76
2021/04/15 09:31:49;;;;;;;6.07;3.60;;;;;;;4.08;48.47;96477.09;4994762;28;20194;-76
2021/04/15 09:34:38;;;;;;;5.40;3.37;;;;;;;4.87;47.16;96467.38;4995849;28;20218;-76
2021/04/15 09:37:15;;;;;;;4.83;3.13;;;;;;;4.18;47.50;96471.34;5011328;28;20214;-77
2021/04/15 09:40:01;;;;;;;5.93;3.33;;;;;;;3.29;49.15;96470.22;4994852;28;20186;-76
2021/04/15 09:42:57;;;;;;;4.30;3.80;;;;;;;3.42;48.78;96472.94;4995566;28;20182;-77
2021/04/15 09:46:00;;;;;;;5.10;3.70;;;;;;;3.33;48.80;96471.69;5009743;28;20201;-75
2021/04/15 09:48:50;;;;;;;4.17;3.20;;;;;;;3.82;48.41;96475.94;5010835;28;20237;-75
2021/04/15 09:51:40;;;;;;;8.13;5.30;;;;;;;3.97;47.30;96464.81;5011742;28;20211;-75
2021/04/15 09:54:17;;;;;;;4.30;2.83;;;;;;;3.91;47.21;96470.31;5010653;28;20195;-74
2021/04/15 09:57:09;;;;;;;8.60;4.47;;;;;;;3.84;46.11;96468.97;5010879;28;20206;-74
2021/04/15 09:59:53;;;;;;;5.23;3.10;;;;;;;4.09;43.81;96463.31;4978290;28;20183;-75
2021/04/15 10:02:29;;;;;;;3.90;2.87;;;;;;;4.13;45.22;96463.03;5013083;28;20177;-75
2021/04/15 10:05:02;;;;;;;5.17;3.20;;;;;;;4.35;45.22;96459.28;4993865;28;20195;-74
2021/04/15 10:07:34;;;;;;;6.53;2.57;;;;;;;4.39;44.41;96463.31;4994718;28;20562;-77
2021/04/15 10:10:13;;;;;;;4.97;2.93;;;;;;;4.16;45.41;96460.31;4994001;28;20193;-73
2021/04/15 10:12:58;;;;;;;6.70;3.17;;;;;;;4.11;45.07;96454.59;4994124;28;20178;-73
2021/04/15 10:15:40;;;;;;;3.90;2.70;;;;;;;4.15;45.28;96450.09;4993753;28;20269;-73
2021/04/15 10:18:15;;;;;;;3.47;2.80;;;;;;;4.25;45.19;96448.69;4977895;28;20234;-73
2021/04/15 10:21:02;;;;;;;5.90;3.33;;;;;;;4.47;45.12;96446.53;5011280;28;20167;-73
2021/04/15 10:23:58;;;;;;;4.47;2.97;;;;;;;4.49;45.49;96443.88;5011573;28;20183;-74
2021/04/15 10:26:26;;;;;;;4.17;2.83;;;;;;;3.92;47.19;96451.41;5011295;28;20249;-75
2021/04/15 10:29:39;;;;;;;6.60;2.83;;;;;;;4.28;45.51;96457.97;5011359;28;20232;-75
2021/04/15 10:32:26;;;;;;;3.80;2.20;;;;;;;3.78;46.15;96448.75;4915650;29;20186;-74
2021/04/15 10:35:33;;;;;;;3.73;2.70;;;;;;;3.53;44.76;96455.22;4932976;29;20284;-79
2021/04/15 10:38:19;;;;;;;4.87;2.50;;;;;;;3.34;45.41;96454.53;4936743;29;20397;-80
2021/04/15 10:41:26;;;;;;;2.83;2.30;;;;;;;3.08;46.70;96459.31;4917608;29;20260;-79
2021/04/15 10:44:25;;;;;;;5.67;2.73;;;;;;;3.09;49.00;96450.72;4909774;29;20605;-74
2021/04/15 10:47:00;;;;;;;3.10;2.60;;;;;;;2.93;49.65;96455.00;4931370;29;20219;-74
2021/04/15 10:49:44;;;;;;;8.00;3.30;;;;;;;3.15;50.10;96444.44;4931326;29;20636;-74
2021/04/15 10:52:18;;;;;;;6.23;2.70;;;;;;;3.83;48.94;96441.63;4931192;29;20277;-77
2021/04/15 10:54:44;;;;;;;5.70;2.60;;;;;;;4.31;46.50;96438.03;4930266;29;20662;-74
2021/04/15 10:57:29;;;;;;;3.50;2.50;;;;;;;4.34;42.49;96429.34;4919196;29;20719;-74
2021/04/15 10:59:54;;;;;;;3.47;2.40;;;;;;;4.55;42.13;96428.91;4915043;29;20289;-74
2021/04/15 11:02:23;;;;;;;3.90;2.17;;;;;;;4.58;41.48;96420.19;4950925;28;20291;-74
2021/04/15 11:04:49;;;;;;;5.73;2.40;;;;;;;4.39;44.90;96422.19;4957489;28;20219;-75
2021/04/15 11:07:19;;;;;;;2.83;2.17;;;;;;;3.98;42.57;96415.09;4956163;28;20208;-74
2021/04/15 11:09:50;;;;;;;3.70;2.30;;;;;;;3.90;43.03;96424.97;4955483;28;20526;-75
2021/04/15 11:12:16;;;;;;;3.57;2.10;;;;;;;4.01;43.41;96420.06;4949248;28;20214;-75
2021/04/15 11:14:44;;;;;;;5.00;2.50;;;;;;;4.74;41.51;96414.97;4973130;28;20251;-75
2021/04/15 11:17:18;;;;;;;4.90;2.80;;;;;;;5.28;40.69;96417.72;4974837;28;20216;-75
2021/04/15 11:19:44;;;;;;;3.13;2.20;;;;;;;5.42;40.46;96412.56;4954541;29;20195;-75
2021/04/15 11:22:16;;;;;;;2.63;2.03;;;;;;;6.26;39.06;96407.22;4941499;28;20615;-75
2021/04/15 11:24:43;;;;;;;3.17;1.90;;;;;;;6.41;37.86;96403.63;4972612;28;21584;-75
2021/04/15 11:27:09;;;;;;;2.97;2.13;;;;;;;6.34;39.14;96402.38;4955937;28;20176;-75
2021/04/15 11:29:46;;;;;;;4.70;2.70;;;;;;;5.41;40.52;96410.91;4956384;28;20628;-75
2021/04/15 11:32:39;;;;;;;4.40;2.20;;;;;;;4.88;43.33;96402.13;4973533;28;20176;-75
2021/04/15 11:35:07;;;;;;;7.73;2.70;;;;;;;5.17;41.69;96396.94;4973065;28;20204;-75
2021/04/15 11:37:35;;;;;;;4.17;2.73;;;;;;;5.14;41.46;96397.97;4974465;28;20211;-75
2021/04/15 11:40:31;;;;;;;3.93;2.30;;;;;;;5.46;41.20;96398.53;4974175;28;20212;-75
2021/04/15 11:42:59;;;;;;;6.90;2.40;;;;;;;5.47;40.85;96399.38;4979110;28;20208;-75
2021/04/15 11:45:33;;;;;;;7.60;3.80;;;;;;;5.50;41.18;96389.72;4989359;28;20213;-75
2021/04/15 11:48:28;;;;;;;3.23;2.53;;;;;;;5.69;39.64;96394.53;4956552;28;20192;-75
2021/04/15 11:51:09;;;;;;;3.87;1.80;;;;;;;4.96;39.44;96389.63;4914451;29;20201;-75
2021/04/15 11:53:42;;;;;;;4.50;2.23;;;;;;;4.77;40.93;96395.06;4914902;29;20726;-75
2021/04/15 11:56:32;;;;;;;4.50;2.33;;;;;;;4.48;41.46;96395.91;4898929;29;20198;-74
2021/04/15 11:59:27;;;;;;;2.43;2.20;;;;;;;4.37;42.73;96400.88;4915535;29;20205;-75
2021/04/15 12:01:54;;;;;;;5.53;2.83;;;;;;;3.94;46.61;96413.59;4914734;29;20746;-75
2021/04/15 12:04:28;;;;;;;5.83;3.23;;;;;;;3.86;49.79;96414.00;4898227;29;20237;-75
2021/04/15 12:06:59;;;;;;;4.70;3.13;;;;;;;3.61;52.85;96409.41;4914407;29;20949;-75
2021/04/15 12:09:32;;;;;;;4.90;3.43;;;;;;;2.94;55.02;96435.28;4913775;29;20197;-75
2021/04/15 12:12:20;;;;;;;4.87;3.70;;;;;;;2.40;59.22;96430.31;4914192;29;20225;-75
2021/04/15 12:14:45;;;;;;;5.47;4.20;;;;;;;2.36;59.92;96433.09;4909013;29;20738;-74
2021/04/15 12:17:28;;;;;;;6.10;4.20;;;;;;;2.30;59.42;96426.56;4913314;29;20211;-74
2021/04/15 12:19:59;;;;;;;7.53;4.93;;;;;;;2.70;59.51;96421.97;4914634;29;20194;-74
2021/04/15 12:22:24;;;;;;;7.77;4.57;;;;;;;2.94;58.05;96420.72;4899006;29;20271;-74